createdAt,value
2019-01-19T01:05:31.980Z,58.57
2019-01-19T01:10:38.022Z,58.03
2019-01-19T01:15:48.192Z,58.17
2019-01-19T01:26:49.774Z,58.62
2019-01-19T02:35:48.501Z,59.24
2019-01-19T02:41:07.487Z,59.32
2019-01-19T02:51:52.713Z,60.10
2019-01-19T02:57:01.761Z,60.26
2019-01-19T04:05:27.805Z,61.03
2019-01-19T04:10:34.044Z,60.83
2019-01-19T04:21:36.306Z,61.10
2019-01-19T04:26:37.594Z,61.51
2019-01-19T06:00:47.740Z,62.21
2019-01-19T06:05:49.465Z,62.21
2019-01-19T06:10:51.621Z,62.48
2019-01-19T06:15:53.085Z,62.75
2019-01-19T06:20:55.028Z,63.11
2019-01-19T06:25:56.465Z,63.39
2019-01-19T06:30:58.613Z,63.23
2019-01-19T06:35:59.977Z,63.29
2019-01-19T06:41:01.337Z,62.66
2019-01-19T06:46:02.688Z,62.89
2019-01-19T06:51:04.041Z,62.44
2019-01-19T06:56:05.403Z,62.33
2019-01-19T07:01:10.936Z,62.82
2019-01-19T07:06:13.008Z,63.04
2019-01-19T07:11:15.097Z,62.21
2019-01-19T07:16:16.397Z,61.98
2019-01-19T07:21:19.112Z,62.09
2019-01-19T07:26:20.549Z,62.45
2019-01-19T07:31:21.900Z,63.19
2019-01-19T07:36:24.306Z,63.10
2019-01-19T07:41:25.645Z,63.41
2019-01-19T07:46:28.867Z,63.50
2019-01-19T07:51:30.200Z,63.00
2019-01-19T07:56:31.509Z,62.86
2019-01-19T08:01:32.868Z,62.97
2019-01-19T08:06:42.041Z,62.45
2019-01-19T08:11:43.429Z,62.82
2019-01-19T08:16:44.733Z,62.03
2019-01-19T08:21:46.073Z,62.08
2019-01-19T08:26:48.181Z,61.68
2019-01-19T08:31:49.576Z,61.30
2019-01-19T08:36:51.099Z,61.02
2019-01-19T08:41:53.183Z,61.01
2019-01-19T08:46:55.333Z,61.34
2019-01-19T08:51:56.732Z,60.98
2019-01-19T08:56:58.101Z,60.63
2019-01-19T09:02:00.148Z,60.19
2019-01-19T09:07:01.488Z,60.44
2019-01-19T09:12:02.879Z,60.39
2019-01-19T09:17:04.197Z,59.85
2019-01-19T09:22:05.588Z,59.14
2019-01-19T09:27:06.951Z,58.74
2019-01-19T09:32:08.551Z,58.34
2019-01-19T09:37:10.619Z,58.46
2019-01-19T09:42:11.921Z,58.30
2019-01-19T09:47:13.336Z,57.94
2019-01-19T09:52:21.135Z,57.76
2019-01-19T09:57:16.896Z,57.67
2019-01-19T10:02:18.292Z,56.95
2019-01-19T10:07:21.722Z,56.33
2019-01-19T10:12:30.251Z,56.55
2019-01-19T10:17:31.548Z,56.20
2019-01-19T10:22:32.954Z,55.93
2019-01-19T10:27:37.511Z,56.06
2019-01-19T10:32:37.096Z,55.52
2019-01-19T10:37:38.428Z,55.12
2019-01-19T10:42:45.030Z,54.12
2019-01-19T10:47:46.529Z,53.96
2019-01-19T10:52:47.922Z,53.97
2019-01-19T10:57:51.036Z,53.81
2019-01-19T11:03:00.722Z,53.42
2019-01-19T11:08:03.978Z,52.58
2019-01-19T11:13:03.422Z,52.73
2019-01-19T11:18:04.753Z,51.66
2019-01-19T11:23:06.069Z,52.68
2019-01-19T11:28:07.359Z,51.25
2019-01-19T11:33:08.691Z,50.88
2019-01-19T11:38:12.067Z,50.15
2019-01-19T11:43:12.132Z,51.79
2019-01-19T11:48:13.482Z,50.35
2019-01-19T11:53:15.578Z,50.18
2019-01-19T11:58:16.893Z,50.10
2019-01-19T12:03:18.202Z,50.26
2019-01-19T12:08:20.003Z,49.34
2019-01-19T12:13:20.865Z,49.34
2019-01-19T12:18:22.320Z,49.10
2019-01-19T12:23:23.675Z,48.59
2019-01-19T12:28:24.980Z,48.35
2019-01-19T12:33:27.693Z,47.10
2019-01-19T12:38:29.031Z,47.40
2019-01-19T12:43:30.341Z,47.53
2019-01-19T12:48:31.651Z,46.87
2019-01-19T12:53:32.927Z,45.92
2019-01-19T12:58:34.312Z,46.65
2019-01-19T13:03:35.617Z,46.45
2019-01-19T13:08:36.985Z,45.45
2019-01-19T13:13:38.261Z,42.21
2019-01-19T13:18:42.202Z,44.57
2019-01-19T13:23:55.317Z,46.12
2019-01-19T13:29:12.466Z,46.81
2019-01-19T13:39:57.552Z,48.56
2019-01-19T13:50:43.089Z,47.48
2019-01-19T13:56:04.664Z,45.57
2019-01-19T14:01:22.267Z,43.23
2019-01-19T14:06:26.598Z,44.71
2019-01-19T14:17:21.160Z,43.57
2019-01-19T14:28:20.737Z,45.99
2019-01-19T14:38:56.751Z,46.93
2019-01-19T14:49:37.461Z,46.89
2019-01-19T14:55:05.425Z,44.46
2019-01-19T15:06:24.636Z,45.24
2019-01-19T15:11:37.613Z,45.83
2019-01-19T15:16:45.784Z,46.35
2019-01-19T15:28:26.979Z,45.92
2019-01-19T15:33:36.334Z,45.17
2019-01-19T15:50:21.005Z,46.12
2019-01-19T15:55:31.136Z,46.02
2019-01-19T16:06:39.693Z,47.17
2019-01-19T16:11:47.685Z,47.71
2019-01-19T16:16:56.053Z,47.95
2019-01-19T16:22:08.937Z,48.24
2019-01-19T16:33:22.332Z,49.29
2019-01-19T16:38:34.637Z,49.86
2019-01-19T16:43:38.769Z,49.81
2019-01-19T16:54:14.708Z,50.23
2019-01-19T17:05:13.228Z,51.28
2019-01-19T17:10:29.194Z,51.50
2019-01-19T17:15:37.210Z,51.68
2019-01-19T17:20:53.353Z,51.54
2019-01-19T17:32:08.700Z,51.17
2019-01-19T17:37:27.159Z,51.96
2019-01-19T17:48:40.562Z,51.46
2019-01-19T17:59:31.346Z,50.73
2019-01-19T18:04:33.480Z,50.95
2019-01-19T18:15:32.066Z,51.16
2019-01-19T18:26:10.288Z,51.82
2019-01-19T18:31:24.132Z,51.96
2019-01-19T18:36:41.987Z,52.01
2019-01-19T18:47:44.659Z,52.17
2019-01-19T18:53:02.566Z,52.23
2019-01-19T18:58:13.104Z,52.16
2019-01-19T19:03:42.371Z,52.08
2019-01-19T19:08:49.374Z,52.07
2019-01-19T19:13:50.676Z,51.93
2019-01-19T19:19:16.520Z,52.13
2019-01-19T19:24:27.473Z,52.22
2019-01-19T19:35:34.438Z,52.02
2019-01-19T19:40:53.056Z,52.40
2019-01-19T19:46:19.547Z,52.12
2019-01-19T19:57:07.704Z,52.40
2019-01-19T20:02:09.014Z,52.84
2019-01-19T20:07:12.203Z,52.48
2019-01-19T20:12:13.498Z,52.42
2019-01-19T20:17:23.976Z,52.29
2019-01-19T20:22:33.737Z,52.25
2019-01-19T20:27:35.033Z,52.22
2019-01-19T20:32:36.343Z,52.10
2019-01-19T20:37:37.640Z,52.11
2019-01-19T20:42:38.933Z,52.15
2019-01-19T20:47:42.295Z,52.12
2019-01-19T20:52:51.978Z,52.42
2019-01-19T20:57:53.304Z,52.22
2019-01-19T21:02:55.358Z,52.49
2019-01-19T21:07:56.686Z,52.60
2019-01-19T21:12:57.966Z,52.58
2019-01-19T21:17:59.248Z,52.80
2019-01-19T21:23:00.564Z,53.02
2019-01-19T21:28:02.736Z,53.12
2019-01-19T21:33:04.121Z,53.22
2019-01-19T21:38:05.424Z,53.32
2019-01-19T21:43:06.758Z,53.53
2019-01-19T21:48:08.093Z,53.92
2019-01-19T21:53:09.497Z,54.04
2019-01-19T21:58:10.833Z,54.09
2019-01-19T22:03:12.152Z,54.25
2019-01-19T22:08:13.523Z,54.41
2019-01-19T22:13:14.836Z,54.74
2019-01-19T22:18:16.180Z,54.74
2019-01-19T22:23:17.493Z,55.00
2019-01-19T22:28:18.806Z,54.99
2019-01-19T22:33:20.163Z,55.52
2019-01-19T22:38:22.245Z,55.38
2019-01-19T22:43:25.296Z,55.43
2019-01-19T22:48:26.831Z,55.36
2019-01-19T22:53:28.236Z,55.47
2019-01-19T22:58:29.612Z,56.00
2019-01-19T23:35:11.131Z,55.75
2019-01-19T23:40:12.472Z,55.87
2019-01-19T23:45:13.869Z,56.42
2019-01-19T23:50:15.358Z,56.55
2019-01-19T23:55:16.707Z,56.63
